Time;durP1;ratioP1;P1;durP2;ratioP2;P2;SDS_P1;SDS_P2;PMS_P1;PMS_P2;Temp;Humidity;BMP_temperature;BMP_pressure;BME280_temperature;BME280_humidity;BME280_pressure;Samples;Min_cycle;Max_cycle;Signal;HPM_P1;HPM_P2
2022/07/11 00:00:32;;;;;;;3.47;3.17;;;;;24.10;101215.00;;;;2078876;28;20244;-56
2022/07/11 00:01:32;;;;;;;2.87;2.57;;;;;24.10;101210.00;;;;2078744;28;20209;-56
2022/07/11 00:02:32;;;;;;;3.10;2.80;;;;;24.10;101214.00;;;;2078932;28;20272;-56
2022/07/11 00:03:33;;;;;;;3.47;2.80;;;;;24.10;101211.00;;;;2078720;28;20281;-56
2022/07/11 00:04:33;;;;;;;4.87;2.83;;;;;24.10;101217.00;;;;2073044;28;20230;-56
2022/07/11 00:05:33;;;;;;;2.67;2.47;;;;;24.10;101211.00;;;;2071337;28;20217;-56
2022/07/11 00:06:34;;;;;;;3.93;3.00;;;;;24.10;101210.00;;;;2071242;28;20577;-56
2022/07/11 00:07:34;;;;;;;3.80;2.50;;;;;24.10;101221.00;;;;2070470;28;20658;-56
2022/07/11 00:08:35;;;;;;;3.00;2.40;;;;;24.10;101209.00;;;;2071479;28;20217;-56
2022/07/11 00:09:35;;;;;;;4.00;2.50;;;;;24.10;101210.00;;;;2074829;28;20310;-56
2022/07/11 00:10:35;;;;;;;3.87;2.93;;;;;24.10;101210.00;;;;2079207;28;20275;-56
2022/07/11 00:11:36;;;;;;;3.00;2.70;;;;;24.10;101212.00;;;;2079510;28;20224;-56
2022/07/11 00:12:37;;;;;;;3.40;2.50;;;;;24.10;101210.00;;;;2079541;28;20206;-56
2022/07/11 00:13:37;;;;;;;4.77;2.80;;;;;24.10;101204.00;;;;2079542;28;20487;-56
2022/07/11 00:14:39;;;;;;;4.33;2.93;;;;;24.10;101210.00;;;;2078303;28;20214;-56
2022/07/11 00:15:39;;;;;;;3.40;2.50;;;;;24.10;101211.00;;;;2079590;28;20221;-56
2022/07/11 00:16:40;;;;;;;3.77;2.90;;;;;24.10;101205.00;;;;2079524;28;20240;-56
2022/07/11 00:17:40;;;;;;;3.30;2.97;;;;;24.10;101215.00;;;;2078696;28;20213;-56
2022/07/11 00:18:40;;;;;;;3.00;2.67;;;;;24.10;101207.00;;;;2079249;28;20295;-56
2022/07/11 00:19:41;;;;;;;3.40;2.73;;;;;24.10;101209.00;;;;2079439;28;20214;-56
2022/07/11 00:20:41;;;;;;;2.97;2.37;;;;;24.10;101208.00;;;;2079390;28;20213;-56
2022/07/11 00:21:41;;;;;;;2.90;2.60;;;;;24.10;101213.00;;;;2079682;28;20240;-56
2022/07/11 00:22:42;;;;;;;3.33;2.50;;;;;24.10;101207.00;;;;2079253;28;20221;-56
2022/07/11 00:23:43;;;;;;;3.63;2.70;;;;;24.10;101212.00;;;;2079332;28;20221;-56
2022/07/11 00:24:43;;;;;;;3.65;2.65;;;;;24.10;101194.00;;;;2078651;28;20217;-57
2022/07/11 00:25:43;;;;;;;3.27;2.40;;;;;24.10;101214.00;;;;2070439;28;20634;-56
2022/07/11 00:26:44;;;;;;;3.17;2.63;;;;;24.10;101208.00;;;;2078181;28;20492;-59
2022/07/11 00:27:44;;;;;;;2.70;2.10;;;;;24.10;101206.00;;;;2078680;28;20300;-58
2022/07/11 00:28:44;;;;;;;2.60;2.40;;;;;24.10;101211.00;;;;2079414;28;20221;-57
2022/07/11 00:29:45;;;;;;;3.33;2.77;;;;;24.10;101209.00;;;;2078041;28;20222;-57
2022/07/11 00:30:45;;;;;;;3.70;2.40;;;;;24.00;101210.00;;;;2078344;28;20213;-56
2022/07/11 00:31:46;;;;;;;3.67;2.80;;;;;24.10;101195.00;;;;2075150;28;21029;-56
2022/07/11 00:32:48;;;;;;;4.10;2.60;;;;;24.10;101207.00;;;;2071364;28;20270;-57
2022/07/11 00:33:48;;;;;;;2.67;2.47;;;;;24.10;101206.00;;;;2071243;28;21005;-57
2022/07/11 00:34:49;;;;;;;2.90;2.40;;;;;24.00;101202.00;;;;2078578;28;20221;-56
2022/07/11 00:35:49;;;;;;;2.90;2.60;;;;;24.10;101212.00;;;;2079498;28;20708;-56
2022/07/11 00:36:49;;;;;;;3.90;2.60;;;;;24.00;101201.00;;;;2074161;28;20671;-56
2022/07/11 00:37:50;;;;;;;3.03;2.43;;;;;24.00;101195.00;;;;2070697;28;20226;-57
2022/07/11 00:38:50;;;;;;;3.00;2.30;;;;;24.00;101195.00;;;;2071323;28;20730;-56
2022/07/11 00:39:50;;;;;;;3.30;2.20;;;;;24.00;101198.00;;;;2071915;28;20905;-56
2022/07/11 00:40:51;;;;;;;3.20;2.90;;;;;24.00;101202.00;;;;2074715;28;20232;-56
2022/07/11 00:41:52;;;;;;;2.63;2.00;;;;;24.00;101195.00;;;;2071232;28;20214;-55
2022/07/11 00:42:52;;;;;;;2.38;2.10;;;;;24.00;101203.00;;;;2071505;28;20845;-56
2022/07/11 00:43:57;;;;;;;3.30;2.50;;;;;24.00;101207.00;;;;2079520;28;20221;-56
2022/07/11 00:44:57;;;;;;;2.28;2.08;;;;;24.00;101201.00;;;;2079171;28;20752;-56
2022/07/11 00:45:58;;;;;;;2.80;2.47;;;;;24.10;101201.00;;;;2079187;28;20210;-55
2022/07/11 00:46:58;;;;;;;3.10;2.40;;;;;24.00;101194.00;;;;2079368;28;20260;-55
2022/07/11 00:47:58;;;;;;;2.50;2.07;;;;;24.00;101198.00;;;;2078571;28;20213;-55
2022/07/11 00:48:59;;;;;;;2.50;2.00;;;;;24.00;101202.00;;;;2077091;28;20299;-55
2022/07/11 00:49:59;;;;;;;3.03;2.50;;;;;24.00;101193.00;;;;2070601;28;20233;-55
2022/07/11 00:50:59;;;;;;;2.50;2.30;;;;;24.00;101201.00;;;;2070496;28;20238;-55
2022/07/11 00:52:00;;;;;;;3.87;3.07;;;;;24.00;101171.00;;;;2062680;28;20210;-55
2022/07/11 00:53:00;;;;;;;3.10;2.50;;;;;24.00;101164.00;;;;2063856;28;20203;-55
2022/07/11 00:54:00;;;;;;;3.23;2.20;;;;;24.00;101198.00;;;;2065277;28;20574;-55
2022/07/11 00:55:02;;;;;;;2.57;2.17;;;;;24.00;101197.00;;;;2060341;28;20565;-55
2022/07/11 00:56:02;;;;;;;2.60;2.40;;;;;24.00;101195.00;;;;2070641;28;20305;-55
2022/07/11 00:57:03;;;;;;;4.40;2.90;;;;;24.00;101193.00;;;;2069227;28;20264;-54
2022/07/11 00:58:03;;;;;;;2.33;1.83;;;;;24.00;101202.00;;;;2069841;28;20210;-55
2022/07/11 00:59:04;;;;;;;3.50;2.33;;;;;24.00;101199.00;;;;2070427;28;20257;-55
2022/07/11 01:00:05;;;;;;;2.40;2.10;;;;;24.00;101197.00;;;;2070399;28;20214;-55
2022/07/11 01:01:05;;;;;;;3.33;2.17;;;;;24.00;101196.00;;;;2071188;28;20218;-55
2022/07/11 01:02:06;;;;;;;2.70;2.30;;;;;24.00;101194.00;;;;2071385;28;21045;-55
2022/07/11 01:03:06;;;;;;;2.33;2.13;;;;;24.10;101195.00;;;;2071282;28;20297;-55
2022/07/11 01:04:07;;;;;;;2.93;2.30;;;;;24.00;101195.00;;;;2071222;28;20337;-54
2022/07/11 01:05:07;;;;;;;2.90;2.43;;;;;24.00;101196.00;;;;2070968;28;20237;-55
2022/07/11 01:06:08;;;;;;;4.03;2.60;;;;;24.00;101187.00;;;;2073123;28;20214;-54
2022/07/11 01:07:08;;;;;;;2.27;2.07;;;;;24.10;101200.00;;;;2079296;28;20206;-54
2022/07/11 01:08:08;;;;;;;2.67;2.10;;;;;24.00;101203.00;;;;2077796;28;20217;-55
2022/07/11 01:09:09;;;;;;;4.30;2.20;;;;;24.00;101191.00;;;;2058724;28;20211;-55
2022/07/11 01:10:09;;;;;;;3.10;2.00;;;;;24.00;101198.00;;;;2070989;28;20217;-56
2022/07/11 01:11:15;;;;;;;3.00;2.23;;;;;24.00;101188.00;;;;2062694;28;20250;-56
2022/07/11 01:12:17;;;;;;;2.42;2.20;;;;;24.00;101190.00;;;;2070704;28;20214;-56
2022/07/11 01:13:17;;;;;;;3.05;2.30;;;;;24.00;101197.00;;;;2071307;28;20630;-55
2022/07/11 01:14:18;;;;;;;4.00;2.40;;;;;24.00;101194.00;;;;2073948;28;20292;-57
2022/07/11 01:15:18;;;;;;;3.40;2.10;;;;;24.00;101187.00;;;;2079344;28;20644;-56
2022/07/11 01:16:21;;;;;;;4.40;2.17;;;;;24.00;101198.00;;;;2079056;28;20205;-56
2022/07/11 01:17:21;;;;;;;2.50;2.10;;;;;24.00;101184.00;;;;2078465;28;20817;-57
2022/07/11 01:18:22;;;;;;;2.40;1.93;;;;;24.00;101193.00;;;;2078802;28;20224;-57
2022/07/11 01:19:22;;;;;;;3.13;2.03;;;;;24.00;101205.00;;;;2071262;28;20678;-55
2022/07/11 01:20:22;;;;;;;3.03;2.13;;;;;24.00;101195.00;;;;2070243;28;20666;-57
2022/07/11 01:21:29;;;;;;;2.70;1.83;;;;;24.00;101205.00;;;;2070055;28;20648;-57
2022/07/11 01:22:30;;;;;;;2.60;2.08;;;;;24.00;101194.00;;;;2070258;28;20244;-57
2022/07/11 01:23:30;;;;;;;2.53;1.80;;;;;23.90;101183.00;;;;2066533;28;20746;-57
2022/07/11 01:24:30;;;;;;;1.90;1.70;;;;;24.00;101199.00;;;;2069096;28;20721;-57
2022/07/11 01:25:31;;;;;;;3.53;2.17;;;;;24.00;101190.00;;;;2061924;28;20214;-57
2022/07/11 01:26:32;;;;;;;3.80;2.37;;;;;24.00;101191.00;;;;2078171;28;20288;-57
2022/07/11 01:27:32;;;;;;;2.20;2.00;;;;;24.00;101194.00;;;;2078340;28;20225;-56
2022/07/11 01:28:33;;;;;;;2.30;1.73;;;;;24.00;101195.00;;;;2078306;28;20596;-56
2022/07/11 01:29:33;;;;;;;1.97;1.70;;;;;24.00;101190.00;;;;2078002;28;20897;-55
2022/07/11 01:30:33;;;;;;;2.47;1.70;;;;;24.00;101192.00;;;;2077478;28;20214;-55
2022/07/11 01:31:34;;;;;;;2.60;1.77;;;;;24.00;101195.00;;;;2075008;28;20214;-55
2022/07/11 01:32:34;;;;;;;2.67;1.97;;;;;24.00;101191.00;;;;2073568;28;20247;-54
2022/07/11 01:33:35;;;;;;;2.30;1.93;;;;;24.00;101199.00;;;;2070436;28;20230;-55
2022/07/11 01:34:35;;;;;;;4.30;2.17;;;;;24.00;101200.00;;;;2070619;28;20210;-55
2022/07/11 01:35:36;;;;;;;2.67;1.63;;;;;24.00;101196.00;;;;2071073;28;20210;-55
2022/07/11 01:36:36;;;;;;;2.67;1.73;;;;;24.00;101193.00;;;;2077735;28;20237;-55
2022/07/11 01:37:36;;;;;;;2.27;1.90;;;;;24.00;101195.00;;;;2077485;28;20202;-55
2022/07/11 01:38:37;;;;;;;3.63;2.20;;;;;24.00;101192.00;;;;2078657;28;20220;-55
2022/07/11 01:39:37;;;;;;;3.97;2.27;;;;;24.00;101193.00;;;;2078605;28;20210;-56
2022/07/11 01:40:37;;;;;;;2.67;2.00;;;;;24.00;101193.00;;;;2078299;28;20206;-55
2022/07/11 01:41:38;;;;;;;2.97;1.90;;;;;24.00;101197.00;;;;2070858;28;20825;-56
2022/07/11 01:42:38;;;;;;;3.03;2.07;;;;;24.00;101190.00;;;;2070962;28;20710;-55
2022/07/11 01:43:39;;;;;;;2.30;1.97;;;;;24.00;101186.00;;;;2070045;28;20218;-55
2022/07/11 01:44:39;;;;;;;3.13;2.17;;;;;24.00;101186.00;;;;2070032;28;20309;-55
2022/07/11 01:45:39;;;;;;;3.07;1.90;;;;;24.00;101186.00;;;;2072061;28;20718;-55
2022/07/11 01:46:40;;;;;;;2.60;1.67;;;;;24.00;101177.00;;;;2073323;28;20551;-56
2022/07/11 01:47:40;;;;;;;2.60;2.10;;;;;24.00;101185.00;;;;2069314;28;20610;-56
2022/07/11 01:48:40;;;;;;;3.07;2.00;;;;;23.90;101183.00;;;;2069996;28;20943;-55
2022/07/11 01:49:41;;;;;;;2.07;1.77;;;;;23.90;101183.00;;;;2074274;28;20237;-56
2022/07/11 01:50:41;;;;;;;2.40;1.80;;;;;24.00;101180.00;;;;2077850;28;20267;-55
2022/07/11 01:51:42;;;;;;;3.57;1.97;;;;;24.00;101178.00;;;;2077908;28;20300;-55
2022/07/11 01:52:42;;;;;;;2.00;1.80;;;;;24.00;101177.00;;;;2077913;28;20239;-55
2022/07/11 01:53:42;;;;;;;3.07;1.73;;;;;23.90;101186.00;;;;2073342;28;20309;-55
2022/07/11 01:54:42;;;;;;;2.80;1.60;;;;;23.90;101178.00;;;;2070123;28;20284;-56
2022/07/11 01:55:43;;;;;;;2.13;1.70;;;;;24.00;101187.00;;;;2070191;28;20210;-55
2022/07/11 01:56:43;;;;;;;2.67;1.57;;;;;23.90;101182.00;;;;2069863;28;20367;-54
2022/07/11 01:57:43;;;;;;;3.20;1.80;;;;;23.90;101177.00;;;;2073003;28;20247;-55
2022/07/11 01:58:44;;;;;;;1.73;1.53;;;;;23.90;101180.00;;;;2076798;28;20221;-55
2022/07/11 01:59:44;;;;;;;3.10;1.70;;;;;23.90;101178.00;;;;2075606;28;20236;-56
2022/07/11 02:00:44;;;;;;;2.63;1.90;;;;;24.00;101178.00;;;;2069213;28;20236;-55
2022/07/11 02:01:45;;;;;;;2.20;1.73;;;;;24.00;101175.00;;;;2077561;28;20214;-55
2022/07/11 02:02:45;;;;;;;2.00;1.43;;;;;24.00;101175.00;;;;2073841;28;20534;-56
2022/07/11 02:03:45;;;;;;;2.70;1.80;;;;;24.00;101176.00;;;;2086015;28;20622;-56
2022/07/11 02:04:46;;;;;;;2.03;1.83;;;;;24.00;101195.00;;;;2079871;28;20222;-55
2022/07/11 02:05:47;;;;;;;3.13;1.70;;;;;24.00;101173.00;;;;2078272;28;20681;-55
2022/07/11 02:06:47;;;;;;;2.53;1.70;;;;;24.00;101172.00;;;;2078452;28;20454;-55
2022/07/11 02:09:06;;;;;;;1.60;1.50;;;;;24.00;101175.00;;;;2059978;28;20214;-56
2022/07/11 02:10:07;;;;;;;2.77;1.80;;;;;23.90;101177.00;;;;2070065;28;20262;-54
2022/07/11 02:11:07;;;;;;;2.87;2.00;;;;;23.90;101181.00;;;;2072868;28;20214;-56
2022/07/11 02:12:08;;;;;;;3.10;1.90;;;;;23.90;101180.00;;;;2077487;28;21038;-55
2022/07/11 02:13:09;;;;;;;4.67;1.90;;;;;23.90;101175.00;;;;2077185;28;20692;-55
2022/07/11 02:14:09;;;;;;;1.77;1.38;;;;;24.00;101174.00;;;;2077061;28;20223;-56
2022/07/11 02:15:10;;;;;;;2.60;1.80;;;;;23.90;101179.00;;;;2078367;28;20944;-56
2022/07/11 02:16:10;;;;;;;1.93;1.40;;;;;24.00;101178.00;;;;2069546;28;20983;-55
2022/07/11 02:17:10;;;;;;;2.27;1.63;;;;;24.00;101179.00;;;;2075487;28;20590;-56
2022/07/11 02:18:11;;;;;;;2.27;1.70;;;;;23.40;101179.00;;;;2077689;28;20571;-55
2022/07/11 02:19:11;;;;;;;2.33;2.10;;;;;24.00;101182.00;;;;2078730;28;20635;-55
2022/07/11 02:20:12;;;;;;;2.57;2.03;;;;;23.90;101177.00;;;;2078155;28;20296;-55
2022/07/11 02:21:12;;;;;;;1.90;1.47;;;;;23.90;101181.00;;;;2077530;28;20231;-56
2022/07/11 02:22:15;;;;;;;2.37;1.83;;;;;23.90;101175.00;;;;2078699;28;20221;-56
2022/07/11 02:23:16;;;;;;;2.92;1.60;;;;;23.90;101183.00;;;;2078713;28;20356;-55
2022/07/11 02:24:16;;;;;;;2.03;1.65;;;;;23.90;101182.00;;;;2078556;28;20248;-56
2022/07/11 02:25:17;;;;;;;2.20;1.40;;;;;23.90;101186.00;;;;2074081;28;20794;-55
2022/07/11 02:26:17;;;;;;;1.90;1.70;;;;;23.90;101183.00;;;;2070122;28;20621;-56
2022/07/11 02:27:17;;;;;;;1.87;1.60;;;;;23.90;101190.00;;;;2070027;28;20260;-55
2022/07/11 02:28:18;;;;;;;2.13;1.60;;;;;23.90;101181.00;;;;2069630;28;20202;-55
2022/07/11 02:29:22;;;;;;;2.30;1.60;;;;;23.90;101186.00;;;;2074390;28;20229;-55
2022/07/11 02:30:22;;;;;;;2.63;1.70;;;;;23.90;101192.00;;;;2073513;28;20588;-55
2022/07/11 02:31:22;;;;;;;2.87;1.50;;;;;23.90;101187.00;;;;2068052;28;20229;-55
2022/07/11 02:32:23;;;;;;;3.63;1.90;;;;;24.00;101175.00;;;;2069565;28;20678;-55
2022/07/11 02:33:23;;;;;;;2.10;1.90;;;;;24.00;101177.00;;;;2070646;28;20218;-56
2022/07/11 02:34:24;;;;;;;2.27;1.50;;;;;23.90;101192.00;;;;2076259;28;20253;-55
2022/07/11 02:35:24;;;;;;;2.83;1.77;;;;;24.00;101189.00;;;;2078667;28;20256;-55
2022/07/11 02:36:25;;;;;;;2.30;1.80;;;;;23.90;101183.00;;;;2077869;28;20217;-55
2022/07/11 02:37:25;;;;;;;2.17;1.70;;;;;23.90;101188.00;;;;2075658;28;20601;-55
2022/07/11 02:38:26;;;;;;;2.23;1.93;;;;;23.90;101190.00;;;;2070676;28;20636;-55
2022/07/11 02:39:26;;;;;;;2.53;1.50;;;;;23.90;101184.00;;;;2070385;28;21406;-54
2022/07/11 02:40:27;;;;;;;3.47;1.67;;;;;23.90;101181.00;;;;2070455;28;20222;-55
2022/07/11 02:41:29;;;;;;;3.20;1.73;;;;;23.90;101187.00;;;;2069992;28;20280;-55
2022/07/11 02:42:29;;;;;;;4.07;1.80;;;;;23.90;101186.00;;;;2076341;28;20217;-55
2022/07/11 02:43:30;;;;;;;3.63;1.80;;;;;23.90;101180.00;;;;2075908;28;20307;-55
2022/07/11 02:44:30;;;;;;;2.00;1.40;;;;;23.90;101189.00;;;;2070419;28;20214;-55
2022/07/11 02:45:31;;;;;;;3.13;1.73;;;;;23.90;101183.00;;;;2074444;28;20209;-55
2022/07/11 02:46:32;;;;;;;2.10;1.67;;;;;23.90;101186.00;;;;2073790;28;20292;-56
2022/07/11 02:47:32;;;;;;;2.50;1.90;;;;;23.90;101192.00;;;;2071534;28;20218;-55
2022/07/11 02:48:32;;;;;;;2.63;1.80;;;;;23.90;101187.00;;;;2077510;28;21005;-55
2022/07/11 02:49:33;;;;;;;3.00;1.70;;;;;23.90;101164.00;;;;2065226;28;20210;-55
2022/07/11 02:50:33;;;;;;;2.47;1.60;;;;;23.90;101193.00;;;;2071040;28;20242;-55
2022/07/11 02:51:33;;;;;;;3.00;1.30;;;;;23.90;101187.00;;;;2077343;28;20217;-55
2022/07/11 02:52:34;;;;;;;2.37;1.67;;;;;23.90;101182.00;;;;2077251;28;20292;-55
2022/07/11 02:53:34;;;;;;;3.83;1.47;;;;;23.90;101183.00;;;;2077948;28;20251;-55
2022/07/11 02:54:35;;;;;;;2.73;1.57;;;;;23.90;101186.00;;;;2077586;28;20223;-55
2022/07/11 02:55:35;;;;;;;2.50;1.60;;;;;23.90;101189.00;;;;2071762;28;20214;-55
2022/07/11 02:56:35;;;;;;;2.50;1.57;;;;;23.90;101187.00;;;;2073620;28;20222;-55
2022/07/11 02:57:36;;;;;;;2.03;1.67;;;;;23.90;101183.00;;;;2069313;28;20268;-55
2022/07/11 02:58:37;;;;;;;2.80;1.67;;;;;23.90;101189.00;;;;2070038;28;20720;-55
2022/07/11 02:59:37;;;;;;;2.57;1.70;;;;;23.90;101187.00;;;;2076198;28;20581;-56
2022/07/11 03:00:37;;;;;;;5.50;1.90;;;;;23.90;101188.00;;;;2075562;28;20214;-55
2022/07/11 03:01:38;;;;;;;2.40;1.80;;;;;23.90;101183.00;;;;2070444;28;20217;-55
2022/07/11 03:02:38;;;;;;;2.10;1.40;;;;;23.90;101183.00;;;;2070562;28;20233;-55
2022/07/11 03:03:38;;;;;;;2.63;1.60;;;;;23.90;101191.00;;;;2069918;28;20214;-56
2022/07/11 03:04:39;;;;;;;6.90;1.70;;;;;23.90;101195.00;;;;2072545;28;20225;-55
2022/07/11 03:05:39;;;;;;;3.70;1.60;;;;;23.90;101192.00;;;;2078634;28;20291;-55
2022/07/11 03:06:39;;;;;;;3.50;1.67;;;;;23.90;101194.00;;;;2078687;28;20516;-55
2022/07/11 03:07:40;;;;;;;3.80;1.83;;;;;23.90;101191.00;;;;2076180;28;20221;-54
2022/07/11 03:08:40;;;;;;;4.60;1.70;;;;;23.90;101190.00;;;;2076683;28;20237;-55
2022/07/11 03:09:40;;;;;;;1.87;1.70;;;;;23.90;101189.00;;;;2076751;28;20712;-56
2022/07/11 03:10:41;;;;;;;3.67;1.67;;;;;23.90;101185.00;;;;2078144;28;20241;-55
2022/07/11 03:11:42;;;;;;;2.20;1.50;;;;;23.90;101190.00;;;;2078574;28;20214;-55
2022/07/11 03:12:43;;;;;;;2.40;1.65;;;;;23.90;101189.00;;;;2075887;28;20220;-58
2022/07/11 03:13:43;;;;;;;3.97;1.67;;;;;23.90;101182.00;;;;2062505;28;20221;-57
2022/07/11 03:14:44;;;;;;;1.67;1.40;;;;;23.90;101186.00;;;;2074076;28;20503;-54
2022/07/11 03:15:44;;;;;;;3.37;1.57;;;;;23.90;101186.00;;;;2075771;28;20240;-55
2022/07/11 03:16:44;;;;;;;3.03;1.73;;;;;23.90;101190.00;;;;2078630;28;20218;-55
2022/07/11 03:17:45;;;;;;;3.00;1.70;;;;;23.90;101191.00;;;;2074692;28;20291;-55
2022/07/11 03:18:45;;;;;;;2.53;1.83;;;;;23.90;101190.00;;;;2070366;28;20367;-56
2022/07/11 03:19:46;;;;;;;3.57;1.97;;;;;23.90;101193.00;;;;2068807;28;20565;-55
2022/07/11 03:20:47;;;;;;;4.55;2.17;;;;;23.90;101190.00;;;;2069663;28;20245;-55
2022/07/11 03:21:47;;;;;;;3.17;1.80;;;;;23.80;101192.00;;;;2070392;28;20709;-56
2022/07/11 03:22:47;;;;;;;2.10;1.70;;;;;23.80;101193.00;;;;2074319;28;20263;-56
2022/07/11 03:23:49;;;;;;;4.27;1.73;;;;;23.90;101192.00;;;;2073637;28;20214;-56
2022/07/11 03:24:52;;;;;;;2.55;1.60;;;;;23.90;101196.00;;;;2068391;28;20218;-55
2022/07/11 03:25:53;;;;;;;2.72;1.85;;;;;23.90;101188.00;;;;2070332;28;20223;-55
2022/07/11 03:26:53;;;;;;;2.03;1.67;;;;;23.80;101178.00;;;;2070443;28;20237;-56
2022/07/11 03:27:54;;;;;;;3.57;1.80;;;;;23.80;101196.00;;;;2069596;28;20210;-55
2022/07/11 03:28:54;;;;;;;3.40;1.80;;;;;23.80;101191.00;;;;2070417;28;20218;-55
2022/07/11 03:29:54;;;;;;;3.77;1.70;;;;;23.80;101200.00;;;;2069721;28;20222;-56
2022/07/11 03:30:55;;;;;;;2.50;1.70;;;;;23.90;101192.00;;;;2070151;28;20213;-55
2022/07/11 03:31:55;;;;;;;1.63;1.47;;;;;23.80;101194.00;;;;2070379;28;20250;-55
2022/07/11 03:32:55;;;;;;;2.70;1.43;;;;;23.80;101193.00;;;;2070369;28;20228;-55
2022/07/11 03:33:56;;;;;;;4.33;1.90;;;;;23.80;101195.00;;;;2077072;28;20213;-55
2022/07/11 03:36:15;;;;;;;3.30;2.05;;;;;23.80;101201.00;;;;2078553;28;20609;-55
2022/07/11 03:37:15;;;;;;;3.80;2.10;;;;;23.90;101200.00;;;;2077788;28;20226;-55
2022/07/11 03:38:19;;;;;;;2.80;1.80;;;;;23.90;101200.00;;;;2078216;28;20225;-55
2022/07/11 03:39:21;;;;;;;2.85;1.90;;;;;23.80;101213.00;;;;2070418;28;20268;-55
2022/07/11 03:40:21;;;;;;;3.70;2.10;;;;;23.80;101205.00;;;;2070401;28;20209;-55
2022/07/11 03:41:21;;;;;;;2.23;1.97;;;;;23.80;101202.00;;;;2071224;28;20276;-55
2022/07/11 03:42:22;;;;;;;2.03;1.40;;;;;23.80;101196.00;;;;2071886;28;20259;-56
2022/07/11 03:43:22;;;;;;;2.80;1.57;;;;;23.80;101206.00;;;;2074850;28;20214;-56
2022/07/11 03:44:23;;;;;;;2.50;1.70;;;;;23.80;101200.00;;;;2079895;28;20220;-55
2022/07/11 03:45:24;;;;;;;2.40;1.35;;;;;23.90;101204.00;;;;2079885;28;20209;-55
2022/07/11 03:46:24;;;;;;;3.97;1.77;;;;;23.80;101210.00;;;;2080140;28;20217;-56
2022/07/11 03:47:24;;;;;;;4.27;2.00;;;;;23.90;101201.00;;;;2075200;28;20267;-55
2022/07/11 03:48:25;;;;;;;2.40;1.60;;;;;23.90;101209.00;;;;2079941;28;20209;-56
2022/07/11 03:49:25;;;;;;;2.03;1.70;;;;;23.80;101206.00;;;;2068159;28;20241;-55
2022/07/11 03:50:26;;;;;;;2.77;1.77;;;;;23.80;101199.00;;;;2072848;28;20681;-56
2022/07/11 03:51:26;;;;;;;1.63;1.30;;;;;23.80;101199.00;;;;2079949;28;20217;-55
2022/07/11 03:52:26;;;;;;;2.80;1.87;;;;;23.80;101207.00;;;;2079788;28;20263;-55
2022/07/11 03:53:27;;;;;;;1.87;1.23;;;;;23.20;101205.00;;;;2079903;28;20213;-55
2022/07/11 03:54:27;;;;;;;1.80;1.50;;;;;23.80;101216.00;;;;2079207;28;20568;-55
2022/07/11 03:55:28;;;;;;;1.70;1.23;;;;;23.80;101216.00;;;;2078099;28;20769;-56
2022/07/11 03:56:29;;;;;;;2.17;1.45;;;;;23.80;101194.00;;;;2072145;28;20250;-56
2022/07/11 03:57:29;;;;;;;3.10;1.63;;;;;23.80;101205.00;;;;2073019;28;20438;-55
2022/07/11 03:58:29;;;;;;;2.63;1.50;;;;;23.80;101208.00;;;;2079786;28;20259;-55
2022/07/11 03:59:30;;;;;;;2.33;1.40;;;;;23.80;101207.00;;;;2079760;28;20251;-55
2022/07/11 04:00:31;;;;;;;2.60;1.40;;;;;23.80;101205.00;;;;2079668;28;20216;-55
2022/07/11 04:01:31;;;;;;;2.23;1.60;;;;;23.80;101201.00;;;;2079686;28;20201;-57
2022/07/11 04:02:34;;;;;;;1.97;1.37;;;;;23.80;101208.00;;;;2079656;28;20476;-57
2022/07/11 04:03:35;;;;;;;2.85;1.30;;;;;23.80;101211.00;;;;2079134;28;20344;-57
2022/07/11 04:04:35;;;;;;;1.80;1.40;;;;;23.80;101197.00;;;;2075644;28;20749;-57
2022/07/11 04:05:36;;;;;;;1.87;1.37;;;;;23.80;101207.00;;;;2071575;28;20210;-57
2022/07/11 04:06:36;;;;;;;2.10;1.70;;;;;23.80;101194.00;;;;2070905;28;20253;-57
2022/07/11 04:07:37;;;;;;;2.00;1.30;;;;;23.80;101224.00;;;;2069958;28;20206;-57
2022/07/11 04:08:37;;;;;;;2.57;1.40;;;;;23.80;101201.00;;;;2071660;28;20210;-55
2022/07/11 04:09:37;;;;;;;2.20;1.27;;;;;23.80;101201.00;;;;2075330;28;20495;-54
2022/07/11 04:10:38;;;;;;;1.57;1.00;;;;;23.80;101208.00;;;;2079674;28;20210;-55
2022/07/11 04:11:38;;;;;;;2.17;1.50;;;;;23.80;101207.00;;;;2077618;28;20209;-56
2022/07/11 04:12:38;;;;;;;4.37;1.50;;;;;23.80;101182.00;;;;2071427;28;20245;-55
2022/07/11 04:13:39;;;;;;;2.63;1.30;;;;;23.80;101200.00;;;;2071528;28;20214;-55
2022/07/11 04:14:39;;;;;;;1.80;1.70;;;;;23.80;101202.00;;;;2071285;28;20218;-55
2022/07/11 04:15:39;;;;;;;4.40;1.40;;;;;23.80;101202.00;;;;2071530;28;20221;-55
2022/07/11 04:16:40;;;;;;;1.83;1.43;;;;;23.80;101201.00;;;;2071741;28;20248;-56
2022/07/11 04:17:40;;;;;;;1.30;1.20;;;;;23.80;101201.00;;;;2070676;28;20622;-55
2022/07/11 04:18:40;;;;;;;2.70;1.43;;;;;23.80;101204.00;;;;2075984;28;20685;-56
2022/07/11 04:19:42;;;;;;;2.07;1.30;;;;;23.80;101202.00;;;;2078957;28;20754;-55
2022/07/11 04:20:43;;;;;;;1.85;1.40;;;;;23.80;101203.00;;;;2078863;28;25373;-56
2022/07/11 04:21:43;;;;;;;2.07;1.43;;;;;23.80;101200.00;;;;2079283;28;20657;-56
2022/07/11 04:22:43;;;;;;;2.73;1.40;;;;;23.80;101199.00;;;;2079302;28;20217;-54
2022/07/11 04:23:43;;;;;;;1.60;1.03;;;;;23.80;101201.00;;;;2078830;28;20330;-55
2022/07/11 04:24:44;;;;;;;1.70;1.27;;;;;23.80;101201.00;;;;2077925;28;20226;-55
2022/07/11 04:25:44;;;;;;;1.73;1.20;;;;;23.80;101215.00;;;;2079035;28;20217;-54
2022/07/11 04:26:45;;;;;;;2.17;1.40;;;;;23.80;101207.00;;;;2078624;28;20217;-55
2022/07/11 04:27:45;;;;;;;2.50;1.40;;;;;23.80;101208.00;;;;2074563;28;20220;-56
2022/07/11 04:28:45;;;;;;;2.93;1.20;;;;;23.80;101215.00;;;;2078884;28;20222;-56
2022/07/11 04:29:45;;;;;;;2.13;1.93;;;;;23.80;101213.00;;;;2079433;28;20212;-55
2022/07/11 04:30:46;;;;;;;1.70;1.20;;;;;23.80;101216.00;;;;2078231;28;20229;-56
2022/07/11 04:31:46;;;;;;;3.73;1.37;;;;;23.80;101213.00;;;;2079561;28;20237;-56
2022/07/11 04:32:47;;;;;;;1.87;1.03;;;;;23.80;101220.00;;;;2079503;28;20271;-56
2022/07/11 04:33:47;;;;;;;1.60;1.00;;;;;23.80;101217.00;;;;2079343;28;20213;-55
2022/07/11 04:34:47;;;;;;;4.03;1.40;;;;;23.80;101213.00;;;;2079286;28;20263;-56
2022/07/11 04:35:47;;;;;;;2.90;1.40;;;;;23.80;101210.00;;;;2071418;28;20210;-55
2022/07/11 04:36:48;;;;;;;1.70;1.20;;;;;23.80;101214.00;;;;2073233;28;20222;-56
2022/07/11 04:37:48;;;;;;;2.63;1.40;;;;;23.80;101205.00;;;;2078334;28;20224;-55
2022/07/11 04:38:49;;;;;;;1.87;1.20;;;;;23.80;101209.00;;;;2071742;28;20681;-56
2022/07/11 04:39:49;;;;;;;2.00;1.10;;;;;23.80;101203.00;;;;2070427;28;20637;-55
2022/07/11 04:40:49;;;;;;;1.90;1.13;;;;;23.80;101207.00;;;;2071281;28;20226;-55
2022/07/11 04:41:50;;;;;;;1.60;1.10;;;;;23.80;101210.00;;;;2071432;28;20218;-54
2022/07/11 04:42:51;;;;;;;2.03;1.30;;;;;23.80;101201.00;;;;2071276;28;20241;-56
2022/07/11 04:43:52;;;;;;;2.70;1.15;;;;;23.80;101211.00;;;;2071073;28;20449;-55
2022/07/11 04:44:52;;;;;;;1.87;1.30;;;;;23.80;101204.00;;;;2071128;28;20222;-55
2022/07/11 04:45:52;;;;;;;1.20;1.10;;;;;23.80;101202.00;;;;2077030;28;20213;-55
2022/07/11 04:46:53;;;;;;;1.90;1.30;;;;;23.80;101207.00;;;;2079300;28;20244;-56
2022/07/11 04:47:53;;;;;;;1.50;1.20;;;;;23.80;101210.00;;;;2078387;28;20218;-54
2022/07/11 04:48:54;;;;;;;1.80;1.00;;;;;23.80;101205.00;;;;2079482;28;20742;-55
2022/07/11 04:49:54;;;;;;;2.00;1.23;;;;;23.80;101204.00;;;;2078924;28;20233;-56
2022/07/11 04:50:54;;;;;;;2.50;1.20;;;;;23.80;101214.00;;;;2079181;28;20228;-55
2022/07/11 04:51:55;;;;;;;1.20;1.00;;;;;23.80;101223.00;;;;2079326;28;20252;-56
2022/07/11 04:52:55;;;;;;;2.27;1.00;;;;;23.80;101209.00;;;;2079573;28;20209;-56
2022/07/11 04:53:55;;;;;;;1.80;1.20;;;;;23.80;101212.00;;;;2079612;28;20213;-55
2022/07/11 04:54:56;;;;;;;1.63;0.83;;;;;23.80;101214.00;;;;2079443;28;20238;-56
2022/07/11 04:55:56;;;;;;;1.73;1.10;;;;;23.80;101218.00;;;;2079202;28;20213;-55
2022/07/11 04:56:57;;;;;;;2.10;1.10;;;;;23.80;101218.00;;;;2079213;28;20224;-55
2022/07/11 04:57:58;;;;;;;3.07;1.10;;;;;23.80;101220.00;;;;2078610;28;20214;-56
2022/07/11 04:58:58;;;;;;;1.87;1.10;;;;;23.80;101213.00;;;;2078395;28;20586;-55
2022/07/11 04:59:58;;;;;;;2.07;1.10;;;;;23.80;101207.00;;;;2078612;28;20460;-55
2022/07/11 05:00:59;;;;;;;1.17;0.97;;;;;23.80;101214.00;;;;2078182;28;20242;-56
2022/07/11 05:01:59;;;;;;;1.77;1.07;;;;;23.80;101215.00;;;;2079013;28;20217;-55